Terminal Aerodrome Forecast
Issued by NWS

Home | Current Version | Previous Version | Text Only | Print | Product List | Glossary On
Versions: 1 2 3 4 5 6 7 8 9 10 11 12 13 14
000
FTUS43 KGLD 241100
TAFMCK
TAF
KMCK 241120Z 2412/2512 33014KT P6SM SCT100 BKN250
     FM241400 32019G29KT P6SM SCT100 SCT250
     FM242100 31013KT P6SM FEW090
     FM242300 29010KT P6SM SCT300
     FM250300 24007KT P6SM SCT150 SCT250=

USA.gov is the U.S. government's official web portal to all federal, state and local government web resources and services.